LFMT

Montpellier-Méditerranée Airport

Montpellier/Méditerranée, France
TAF LFMT 212000Z 2121/2221 34008KT CAVOK BECMG 2212/2214 27012KT
Issued Valid From Valid To
Jan-21 @ 20:00 UTC
(4 hours ago)
Jan-21 @ 21:00 UTC
(3 hours ago)
Jan-22 @ 21:00 UTC
(in 21 hours)
Jan-21 @ 21:00 to Jan-22 @ 12:00
TAF LFMT 212000Z 2121/2221 34008KT CAVOK
Wind Visibility Clouds Conditions
340° at 8 knots 10,000+ meters
  • No significant clouds
Becoming Jan-22 @ 12:00 to Jan-22 @ 21:00
BECMG 2212/2214 27012KT
Wind Visibility Clouds Conditions
270° at 12 knots 10,000+ meters
  • No significant clouds
TAF LFMT 212000Z 2121/2221 34008KT CAVOK BECMG 2212/2214 27012KT
Issued Jan-21 @ 20:00 UTC
(4 hours ago)
Valid From Jan-21 @ 21:00 UTC
(3 hours ago)
Valid To Jan-22 @ 21:00 UTC
(in 21 hours)
Jan-21 @ 21:00 - Jan-22 @ 12:00
Wind Visibility
340° at 8 knots 10,000+ meters
Clouds
  • No significant clouds
Conditions
Becoming Jan-22 @ 12:00 - Jan-22 @ 21:00
Wind Visibility
270° at 12 knots 10,000+ meters
Clouds
  • No significant clouds
Conditions